Detall de PIREP

Printer-friendly versionPDF version

[2011/02/19 15:51:00]
Flight IATA:CT1001
Pilot Number:042
Company ICAO:CAT
Aircraft Type:AT72/F
PAX:30
Departing Airport: LEMH
Destination Airport: LFKJ
Alternate Airport:LFMN
Online: VATSIM
Route:MEROS B16 LUMAS UT16 TINOT
Flight Level:F220
No Slew and time accel
No pause
Crash detect
Detect pilot in Cockpit between each 30 and 45 minutes
15:51 Zero fuel Weight: 37063 Lbs, Fuel Weight: 11201 Lbs
15:51 VATSIM:LEMH 191530Z 24006KT 210V280 CAVOK 14/11 Q1014
15:51 VATSIM:LFKJ 191530Z 23005KT 9999 FEW023 14/10 Q1012 NOSIG
15:51 VOICE CATALONIAN / MEDITERRANEAN ODYSSEY
16:20 Parking Brakes off
16:27 Take-off
16:27 Take off Weight: 48174 Lbs
16:27 Wind: 244 @ 005 Knots Heading: 189
16:27 POS N39 50 50 E004 12 56
16:27 Flaps:1 at 168 Knots
16:27 Gear Up: 158 Knots
16:28 Flaps:0 at 128 Knots
16:42 Wind:261@023 Knots Heading: 006 Ground Speed: 280 Knots Altitude 20104 ft
16:49 TOC
16:49 Fuel Weight: 10292 Lb
16:55 TOD
16:55 Fuel Weight: 10083 Lb
16:55 TOC
16:55 Fuel Weight: 10075 Lb
16:57 Wind:254@032 Knots Heading: 005 Ground Speed: 338 Knots Altitude 21965 ft
17:07 TOD
17:07 Fuel Weight: 9606 Lb
17:08 TOC
17:08 Fuel Weight: 9589 Lb
17:12 Wind:262@027 Knots Heading: 111 Ground Speed: 339 Knots Altitude 21935 ft
17:26 TOD
17:26 Fuel Weight: 9011 Lb
17:27 Wind:300@025 Knots Heading: 109 Ground Speed: 331 Knots Altitude 20410 ft
17:40 Flaps:1 at 187 Knots
17:41 Flaps:2 at 119 Knots
17:42 Wind:234@007 Knots Heading: 046 Ground Speed: 143 Knots Altitude 2214 ft
17:43 Flaps:1 at 137 Knots
17:46 Gear Down: 187 Knots
17:46 Flaps:2 at 187 Knots
17:51 TouchDown:Rate -326 ft/min Speed: 99 Knots
17:51 VATSIM:LFKJ 191730Z 21006KT 9999 FEW013 SCT250 12/10 Q1013 NOSIG
17:52 Land
17:52 Wind:220@006 Knots
17:52 Heading: 033
17:52 Flight Duration: 01:25
17:52 Landing Weight: 45734 Lbs
17:52 POS N41 55 14 E008 48 01
17:53 Parking brakes on
17:53 Block to Block Duration: 01:33
17:53 Final Fuel: 8657 Lbls
17:53 Spent Fuel: 2544 Lbls
17:53 Flight Length: 316 NM
17:53 TOD Land Length: 87 NM

Exportar CSV

Powered by Drupal - Modified by Danger4k